sensor_id;sensor_type;location;lat;lon;timestamp;pressure;altitude;pressure_sealevel;temperature;humidity
23427;BME280;41148;45.420;10.952;2022-07-21T00:00:14;100837.19;;;29.04;35.09
23427;BME280;41148;45.420;10.952;2022-07-21T00:02:41;100831.88;;;29.02;35.33
23427;BME280;41148;45.420;10.952;2022-07-21T00:05:09;100830.66;;;28.97;35.55
23427;BME280;41148;45.420;10.952;2022-07-21T00:07:36;100821.63;;;28.87;35.40
23427;BME280;41148;45.420;10.952;2022-07-21T00:10:03;100827.09;;;28.87;35.47
23427;BME280;41148;45.420;10.952;2022-07-21T00:12:30;100828.53;;;28.91;35.59
23427;BME280;41148;45.420;10.952;2022-07-21T00:14:57;100825.38;;;28.86;35.71
23427;BME280;41148;45.420;10.952;2022-07-21T00:17:25;100810.66;;;28.87;35.44
23427;BME280;41148;45.420;10.952;2022-07-21T00:19:52;100820.28;;;28.73;35.57
23427;BME280;41148;45.420;10.952;2022-07-21T00:22:19;100809.94;;;28.67;35.37
23427;BME280;41148;45.420;10.952;2022-07-21T00:24:46;100804.31;;;28.50;35.83
23427;BME280;41148;45.420;10.952;2022-07-21T00:27:14;100801.56;;;28.50;35.81
23427;BME280;41148;45.420;10.952;2022-07-21T00:29:41;100801.56;;;28.50;35.76
23427;BME280;41148;45.420;10.952;2022-07-21T00:32:08;100801.41;;;28.52;35.86
23427;BME280;41148;45.420;10.952;2022-07-21T00:34:35;100809.38;;;28.63;36.12
23427;BME280;41148;45.420;10.952;2022-07-21T00:37:03;100809.22;;;28.65;36.13
23427;BME280;41148;45.420;10.952;2022-07-21T00:39:30;100809.00;;;28.58;36.43
23427;BME280;41148;45.420;10.952;2022-07-21T00:41:57;100817.31;;;28.48;36.54
23427;BME280;41148;45.420;10.952;2022-07-21T00:44:26;100807.91;;;28.51;36.19
23427;BME280;41148;45.420;10.952;2022-07-21T00:46:53;100806.34;;;28.48;36.14
23427;BME280;41148;45.420;10.952;2022-07-21T00:49:21;100817.06;;;28.42;36.90
23427;BME280;41148;45.420;10.952;2022-07-21T00:51:48;100804.22;;;28.42;36.89
23427;BME280;41148;45.420;10.952;2022-07-21T00:54:17;100814.00;;;28.45;36.92
23427;BME280;41148;45.420;10.952;2022-07-21T00:56:45;100818.25;;;28.57;37.13
23427;BME280;41148;45.420;10.952;2022-07-21T00:59:12;100818.09;;;28.59;37.49
23427;BME280;41148;45.420;10.952;2022-07-21T01:01:39;100815.94;;;28.35;38.92
23427;BME280;41148;45.420;10.952;2022-07-21T01:04:07;100809.16;;;28.11;39.78
23427;BME280;41148;45.420;10.952;2022-07-21T01:06:34;100815.53;;;27.75;41.05
23427;BME280;41148;45.420;10.952;2022-07-21T01:09:01;100820.25;;;27.82;41.11
23427;BME280;41148;45.420;10.952;2022-07-21T01:11:36;100808.72;;;27.79;41.30
23427;BME280;41148;45.420;10.952;2022-07-21T01:14:04;100818.75;;;27.70;41.09
23427;BME280;41148;45.420;10.952;2022-07-21T01:16:32;100824.06;;;27.62;41.26
23427;BME280;41148;45.420;10.952;2022-07-21T01:18:59;100824.25;;;27.51;41.65
23427;BME280;41148;45.420;10.952;2022-07-21T01:21:29;100824.81;;;27.45;41.70
23427;BME280;41148;45.420;10.952;2022-07-21T01:23:57;100821.59;;;27.59;41.21
23427;BME280;41148;45.420;10.952;2022-07-21T01:26:24;100825.81;;;27.53;41.34
23427;BME280;41148;45.420;10.952;2022-07-21T01:28:52;100826.84;;;27.43;41.58
23427;BME280;41148;45.420;10.952;2022-07-21T01:31:20;100833.25;;;26.95;42.68
23427;BME280;41148;45.420;10.952;2022-07-21T01:33:48;100823.19;;;27.05;42.43
23427;BME280;41148;45.420;10.952;2022-07-21T01:36:15;100836.13;;;27.13;42.35
23427;BME280;41148;45.420;10.952;2022-07-21T01:38:43;100820.56;;;27.23;42.02
23427;BME280;41148;45.420;10.952;2022-07-21T01:41:29;100820.66;;;27.31;42.08
23427;BME280;41148;45.420;10.952;2022-07-21T01:43:56;100812.78;;;27.28;41.88
23427;BME280;41148;45.420;10.952;2022-07-21T01:46:26;100818.94;;;27.30;42.15
23427;BME280;41148;45.420;10.952;2022-07-21T01:48:56;100818.09;;;27.29;41.96
23427;BME280;41148;45.420;10.952;2022-07-21T01:51:24;100817.38;;;27.27;42.26
23427;BME280;41148;45.420;10.952;2022-07-21T01:53:52;100823.88;;;27.26;42.35
23427;BME280;41148;45.420;10.952;2022-07-21T01:56:19;100813.38;;;27.22;42.45
23427;BME280;41148;45.420;10.952;2022-07-21T01:58:48;100811.22;;;27.16;42.90
23427;BME280;41148;45.420;10.952;2022-07-21T02:01:16;100811.53;;;27.13;42.70
23427;BME280;41148;45.420;10.952;2022-07-21T02:03:44;100812.38;;;27.13;42.71
23427;BME280;41148;45.420;10.952;2022-07-21T02:06:12;100820.84;;;27.00;43.16
23427;BME280;41148;45.420;10.952;2022-07-21T02:08:40;100811.53;;;26.93;43.06
23427;BME280;41148;45.420;10.952;2022-07-21T02:11:09;100809.34;;;26.87;43.30
23427;BME280;41148;45.420;10.952;2022-07-21T02:13:36;100808.03;;;26.91;43.20
23427;BME280;41148;45.420;10.952;2022-07-21T02:16:04;100814.38;;;26.92;42.94
23427;BME280;41148;45.420;10.952;2022-07-21T02:18:31;100807.78;;;26.94;42.56
23427;BME280;41148;45.420;10.952;2022-07-21T02:20:59;100804.44;;;26.91;42.67
23427;BME280;41148;45.420;10.952;2022-07-21T02:23:26;100802.03;;;26.88;42.80
23427;BME280;41148;45.420;10.952;2022-07-21T02:25:53;100799.00;;;26.81;42.89
23427;BME280;41148;45.420;10.952;2022-07-21T02:28:21;100811.09;;;26.78;43.06
23427;BME280;41148;45.420;10.952;2022-07-21T02:30:48;100809.22;;;26.79;42.94
23427;BME280;41148;45.420;10.952;2022-07-21T02:33:16;100810.22;;;26.78;43.08
23427;BME280;41148;45.420;10.952;2022-07-21T02:35:43;100800.88;;;26.71;43.43
23427;BME280;41148;45.420;10.952;2022-07-21T02:38:11;100806.78;;;26.66;43.53
23427;BME280;41148;45.420;10.952;2022-07-21T02:40:39;100803.59;;;26.61;43.48
23427;BME280;41148;45.420;10.952;2022-07-21T02:43:06;100797.72;;;26.66;43.49
23427;BME280;41148;45.420;10.952;2022-07-21T02:45:34;100801.72;;;26.62;43.55
23427;BME280;41148;45.420;10.952;2022-07-21T02:48:05;100795.69;;;26.58;43.69
23427;BME280;41148;45.420;10.952;2022-07-21T02:50:34;100791.97;;;26.59;43.46
23427;BME280;41148;45.420;10.952;2022-07-21T02:53:06;100786.34;;;26.61;43.60
23427;BME280;41148;45.420;10.952;2022-07-21T02:55:34;100785.06;;;26.65;43.19
23427;BME280;41148;45.420;10.952;2022-07-21T02:58:03;100781.31;;;26.66;43.34
23427;BME280;41148;45.420;10.952;2022-07-21T03:00:30;100789.53;;;26.66;43.31
23427;BME280;41148;45.420;10.952;2022-07-21T03:02:58;100775.72;;;26.67;43.17
23427;BME280;41148;45.420;10.952;2022-07-21T03:07:53;100784.63;;;26.69;43.05
23427;BME280;41148;45.420;10.952;2022-07-21T03:10:20;100773.28;;;26.64;43.34
23427;BME280;41148;45.420;10.952;2022-07-21T03:12:47;100774.41;;;26.71;43.10
23427;BME280;41148;45.420;10.952;2022-07-21T03:15:15;100774.84;;;26.76;43.05
23427;BME280;41148;45.420;10.952;2022-07-21T03:17:42;100785.63;;;26.78;43.44
23427;BME280;41148;45.420;10.952;2022-07-21T03:20:09;100784.06;;;26.75;43.48
23427;BME280;41148;45.420;10.952;2022-07-21T03:22:37;100793.69;;;26.70;43.24
23427;BME280;41148;45.420;10.952;2022-07-21T03:25:04;100792.53;;;26.63;43.39
23427;BME280;41148;45.420;10.952;2022-07-21T03:27:32;100789.06;;;26.51;43.87
23427;BME280;41148;45.420;10.952;2022-07-21T03:30:04;100789.94;;;26.42;44.08
23427;BME280;41148;45.420;10.952;2022-07-21T03:32:34;100792.75;;;26.31;44.45
23427;BME280;41148;45.420;10.952;2022-07-21T03:35:02;100789.06;;;25.82;45.56
23427;BME280;41148;45.420;10.952;2022-07-21T03:37:30;100791.13;;;25.99;45.40
23427;BME280;41148;45.420;10.952;2022-07-21T03:39:57;100783.53;;;26.12;45.09
23427;BME280;41148;45.420;10.952;2022-07-21T03:42:25;100781.41;;;26.16;45.00
23427;BME280;41148;45.420;10.952;2022-07-21T03:44:53;100775.50;;;26.20;44.92
23427;BME280;41148;45.420;10.952;2022-07-21T03:47:20;100781.53;;;26.24;44.89
23427;BME280;41148;45.420;10.952;2022-07-21T03:49:47;100779.66;;;26.24;44.65
23427;BME280;41148;45.420;10.952;2022-07-21T03:52:14;100780.25;;;26.28;44.55
23427;BME280;41148;45.420;10.952;2022-07-21T03:54:42;100777.81;;;26.25;44.36
23427;BME280;41148;45.420;10.952;2022-07-21T03:57:09;100793.28;;;26.15;45.05
23427;BME280;41148;45.420;10.952;2022-07-21T03:59:36;100795.06;;;26.25;44.51
23427;BME280;41148;45.420;10.952;2022-07-21T04:02:03;100791.59;;;26.33;44.27
23427;BME280;41148;45.420;10.952;2022-07-21T04:04:31;100788.59;;;26.27;44.79
23427;BME280;41148;45.420;10.952;2022-07-21T04:06:58;100789.31;;;26.29;44.82
23427;BME280;41148;45.420;10.952;2022-07-21T04:09:25;100794.91;;;26.17;44.88
23427;BME280;41148;45.420;10.952;2022-07-21T04:11:52;100796.31;;;26.12;45.25
23427;BME280;41148;45.420;10.952;2022-07-21T04:14:20;100800.75;;;26.03;45.63
23427;BME280;41148;45.420;10.952;2022-07-21T04:16:47;100803.78;;;26.00;45.92
23427;BME280;41148;45.420;10.952;2022-07-21T04:19:14;100804.06;;;25.97;45.90
23427;BME280;41148;45.420;10.952;2022-07-21T04:21:42;100801.31;;;25.87;46.36
23427;BME280;41148;45.420;10.952;2022-07-21T04:24:09;100802.72;;;25.61;46.88
23427;BME280;41148;45.420;10.952;2022-07-21T04:26:36;100797.06;;;25.74;46.54
23427;BME280;41148;45.420;10.952;2022-07-21T04:29:03;100803.72;;;25.81;46.15
23427;BME280;41148;45.420;10.952;2022-07-21T04:31:31;100804.06;;;25.15;48.13
23427;BME280;41148;45.420;10.952;2022-07-21T04:33:58;100803.94;;;25.47;46.91
23427;BME280;41148;45.420;10.952;2022-07-21T04:36:25;100807.81;;;25.45;46.92
23427;BME280;41148;45.420;10.952;2022-07-21T04:38:53;100811.97;;;25.69;46.20
23427;BME280;41148;45.420;10.952;2022-07-21T04:41:21;100809.16;;;25.81;45.85
23427;BME280;41148;45.420;10.952;2022-07-21T04:43:49;100818.81;;;25.64;46.62
23427;BME280;41148;45.420;10.952;2022-07-21T04:46:16;100808.44;;;25.79;46.07
23427;BME280;41148;45.420;10.952;2022-07-21T04:48:43;100810.22;;;25.89;45.78
23427;BME280;41148;45.420;10.952;2022-07-21T04:51:11;100809.78;;;25.94;45.71
23427;BME280;41148;45.420;10.952;2022-07-21T04:53:38;100809.63;;;25.95;45.56
23427;BME280;41148;45.420;10.952;2022-07-21T04:56:05;100807.94;;;26.04;45.24
23427;BME280;41148;45.420;10.952;2022-07-21T04:58:33;100808.22;;;26.01;45.23
23427;BME280;41148;45.420;10.952;2022-07-21T05:01:00;100810.97;;;26.11;44.76
23427;BME280;41148;45.420;10.952;2022-07-21T05:03:27;100803.88;;;25.89;45.29
23427;BME280;41148;45.420;10.952;2022-07-21T05:05:54;100810.97;;;26.11;44.90
23427;BME280;41148;45.420;10.952;2022-07-21T05:08:22;100810.59;;;26.25;44.32
23427;BME280;41148;45.420;10.952;2022-07-21T05:10:49;100812.94;;;26.39;43.97
23427;BME280;41148;45.420;10.952;2022-07-21T05:13:16;100808.06;;;26.52;43.83
23427;BME280;41148;45.420;10.952;2022-07-21T05:15:43;100810.38;;;26.67;43.70
23427;BME280;41148;45.420;10.952;2022-07-21T05:18:11;100810.66;;;26.83;43.29
23427;BME280;41148;45.420;10.952;2022-07-21T05:20:38;100813.25;;;26.85;43.44
23427;BME280;41148;45.420;10.952;2022-07-21T05:23:05;100807.03;;;26.82;43.57
23427;BME280;41148;45.420;10.952;2022-07-21T05:25:33;100819.72;;;26.84;43.07
23427;BME280;41148;45.420;10.952;2022-07-21T05:28:02;100821.84;;;26.90;42.84
23427;BME280;41148;45.420;10.952;2022-07-21T05:30:30;100820.13;;;26.98;42.91
23427;BME280;41148;45.420;10.952;2022-07-21T05:32:57;100824.06;;;27.05;43.04
23427;BME280;41148;45.420;10.952;2022-07-21T05:35:24;100822.47;;;27.13;42.66
23427;BME280;41148;45.420;10.952;2022-07-21T05:37:52;100820.84;;;27.20;42.45
23427;BME280;41148;45.420;10.952;2022-07-21T05:40:19;100825.44;;;27.19;42.41
23427;BME280;41148;45.420;10.952;2022-07-21T05:42:46;100817.25;;;27.19;42.56
23427;BME280;41148;45.420;10.952;2022-07-21T05:45:14;100817.66;;;27.34;42.38
23427;BME280;41148;45.420;10.952;2022-07-21T05:47:41;100827.13;;;27.39;42.41
23427;BME280;41148;45.420;10.952;2022-07-21T05:50:09;100817.75;;;27.52;42.05
23427;BME280;41148;45.420;10.952;2022-07-21T05:52:36;100816.28;;;27.67;41.84
23427;BME280;41148;45.420;10.952;2022-07-21T05:55:03;100820.75;;;27.68;41.77
23427;BME280;41148;45.420;10.952;2022-07-21T05:57:31;100821.44;;;27.80;41.26
23427;BME280;41148;45.420;10.952;2022-07-21T05:59:58;100817.06;;;27.87;40.74
23427;BME280;41148;45.420;10.952;2022-07-21T06:02:26;100812.91;;;27.83;40.73
23427;BME280;41148;45.420;10.952;2022-07-21T06:04:56;100822.47;;;27.97;40.62
23427;BME280;41148;45.420;10.952;2022-07-21T06:07:24;100824.16;;;28.07;40.18
23427;BME280;41148;45.420;10.952;2022-07-21T06:09:51;100827.69;;;28.17;40.15
23427;BME280;41148;45.420;10.952;2022-07-21T06:12:19;100827.53;;;28.29;39.72
23427;BME280;41148;45.420;10.952;2022-07-21T06:14:47;100829.41;;;28.28;39.45
23427;BME280;41148;45.420;10.952;2022-07-21T06:17:15;100820.22;;;28.19;40.01
23427;BME280;41148;45.420;10.952;2022-07-21T06:19:43;100827.47;;;28.38;39.91
23427;BME280;41148;45.420;10.952;2022-07-21T06:22:10;100830.84;;;28.50;39.43
23427;BME280;41148;45.420;10.952;2022-07-21T06:24:37;100834.34;;;28.42;39.63
23427;BME280;41148;45.420;10.952;2022-07-21T06:27:05;100834.69;;;28.57;39.71
23427;BME280;41148;45.420;10.952;2022-07-21T06:29:32;100837.28;;;28.59;39.83
23427;BME280;41148;45.420;10.952;2022-07-21T06:32:00;100842.75;;;28.59;39.25
23427;BME280;41148;45.420;10.952;2022-07-21T06:34:27;100837.91;;;28.70;39.36
23427;BME280;41148;45.420;10.952;2022-07-21T06:36:54;100836.91;;;28.89;38.16
23427;BME280;41148;45.420;10.952;2022-07-21T06:39:22;100838.09;;;29.30;37.71
23427;BME280;41148;45.420;10.952;2022-07-21T06:41:49;100841.53;;;29.50;37.04
23427;BME280;41148;45.420;10.952;2022-07-21T06:44:18;100841.75;;;29.57;36.73
23427;BME280;41148;45.420;10.952;2022-07-21T06:46:45;100839.47;;;29.52;36.60
23427;BME280;41148;45.420;10.952;2022-07-21T06:49:13;100836.47;;;29.63;33.01
23427;BME280;41148;45.420;10.952;2022-07-21T06:51:40;100839.84;;;29.57;33.26
23427;BME280;41148;45.420;10.952;2022-07-21T06:54:07;100846.44;;;29.64;34.20
23427;BME280;41148;45.420;10.952;2022-07-21T06:56:34;100845.59;;;29.72;33.47
23427;BME280;41148;45.420;10.952;2022-07-21T06:59:02;100840.16;;;29.80;33.08
23427;BME280;41148;45.420;10.952;2022-07-21T07:01:29;100846.22;;;29.92;33.72
23427;BME280;41148;45.420;10.952;2022-07-21T07:03:57;100843.50;;;29.92;33.45
23427;BME280;41148;45.420;10.952;2022-07-21T07:06:24;100845.72;;;29.97;32.30
23427;BME280;41148;45.420;10.952;2022-07-21T07:08:51;100856.44;;;30.08;30.89
23427;BME280;41148;45.420;10.952;2022-07-21T07:11:18;100852.72;;;30.17;30.80
23427;BME280;41148;45.420;10.952;2022-07-21T07:13:46;100848.78;;;30.28;28.46
23427;BME280;41148;45.420;10.952;2022-07-21T07:16:29;100850.72;;;30.35;28.81
23427;BME280;41148;45.420;10.952;2022-07-21T07:18:56;100853.97;;;30.39;29.97
23427;BME280;41148;45.420;10.952;2022-07-21T07:21:24;100848.34;;;30.40;29.46
23427;BME280;41148;45.420;10.952;2022-07-21T07:23:51;100849.91;;;30.59;29.33
23427;BME280;41148;45.420;10.952;2022-07-21T07:26:19;100856.16;;;30.69;28.11
23427;BME280;41148;45.420;10.952;2022-07-21T07:28:46;100849.97;;;30.75;27.37
23427;BME280;41148;45.420;10.952;2022-07-21T07:31:13;100853.41;;;30.77;27.24
23427;BME280;41148;45.420;10.952;2022-07-21T07:33:41;100847.75;;;30.79;27.86
23427;BME280;41148;45.420;10.952;2022-07-21T07:36:08;100846.56;;;30.82;28.01
23427;BME280;41148;45.420;10.952;2022-07-21T07:38:39;100846.88;;;30.78;28.38
23427;BME280;41148;45.420;10.952;2022-07-21T07:41:06;100842.94;;;30.89;28.43
23427;BME280;41148;45.420;10.952;2022-07-21T07:43:33;100842.06;;;30.72;31.12
23427;BME280;41148;45.420;10.952;2022-07-21T07:46:01;100838.78;;;30.69;30.82
23427;BME280;41148;45.420;10.952;2022-07-21T07:48:29;100843.44;;;30.85;29.98
23427;BME280;41148;45.420;10.952;2022-07-21T07:50:58;100843.28;;;30.94;30.04
23427;BME280;41148;45.420;10.952;2022-07-21T07:53:25;100842.59;;;30.92;30.32
23427;BME280;41148;45.420;10.952;2022-07-21T07:55:52;100842.06;;;30.97;30.23
23427;BME280;41148;45.420;10.952;2022-07-21T07:58:20;100842.06;;;31.05;30.35
23427;BME280;41148;45.420;10.952;2022-07-21T08:00:47;100838.28;;;31.06;30.18
23427;BME280;41148;45.420;10.952;2022-07-21T08:03:22;100830.22;;;31.04;30.01
23427;BME280;41148;45.420;10.952;2022-07-21T08:05:50;100833.31;;;31.10;30.22
23427;BME280;41148;45.420;10.952;2022-07-21T08:08:17;100836.22;;;31.16;30.30
23427;BME280;41148;45.420;10.952;2022-07-21T08:10:45;100834.88;;;31.28;30.65
23427;BME280;41148;45.420;10.952;2022-07-21T08:13:16;100830.38;;;31.36;30.74
23427;BME280;41148;45.420;10.952;2022-07-21T08:15:44;100829.34;;;31.45;30.10
23427;BME280;41148;45.420;10.952;2022-07-21T08:18:12;100831.22;;;31.52;30.83
23427;BME280;41148;45.420;10.952;2022-07-21T08:20:39;100832.25;;;31.59;31.26
23427;BME280;41148;45.420;10.952;2022-07-21T08:23:07;100827.59;;;31.60;31.59
23427;BME280;41148;45.420;10.952;2022-07-21T08:25:36;100831.88;;;31.62;31.90
23427;BME280;41148;45.420;10.952;2022-07-21T08:28:04;100830.66;;;31.65;32.02
23427;BME280;41148;45.420;10.952;2022-07-21T08:30:31;100828.63;;;31.75;31.53
23427;BME280;41148;45.420;10.952;2022-07-21T08:32:59;100832.75;;;31.55;31.40
23427;BME280;41148;45.420;10.952;2022-07-21T08:35:27;100826.53;;;31.69;31.21
23427;BME280;41148;45.420;10.952;2022-07-21T08:37:55;100832.38;;;31.82;30.75
23427;BME280;41148;45.420;10.952;2022-07-21T08:40:24;100828.03;;;31.96;30.50
23427;BME280;41148;45.420;10.952;2022-07-21T08:42:52;100825.56;;;32.09;30.61
23427;BME280;41148;45.420;10.952;2022-07-21T08:45:20;100822.94;;;32.16;30.63
23427;BME280;41148;45.420;10.952;2022-07-21T08:47:51;100819.50;;;32.14;30.06
23427;BME280;41148;45.420;10.952;2022-07-21T08:50:20;100828.75;;;32.21;30.21
23427;BME280;41148;45.420;10.952;2022-07-21T08:52:48;100827.28;;;32.41;29.21
23427;BME280;41148;45.420;10.952;2022-07-21T08:55:25;100827.19;;;32.58;27.79
23427;BME280;41148;45.420;10.952;2022-07-21T08:57:52;100825.09;;;32.29;28.47
23427;BME280;41148;45.420;10.952;2022-07-21T09:00:19;100819.66;;;32.52;27.87
23427;BME280;41148;45.420;10.952;2022-07-21T09:02:47;100828.13;;;32.73;27.37
23427;BME280;41148;45.420;10.952;2022-07-21T09:05:14;100825.47;;;32.80;27.08
23427;BME280;41148;45.420;10.952;2022-07-21T09:07:52;100818.75;;;32.82;27.07
23427;BME280;41148;45.420;10.952;2022-07-21T09:10:22;100829.78;;;32.59;26.96
23427;BME280;41148;45.420;10.952;2022-07-21T09:12:51;100826.34;;;32.57;26.95
23427;BME280;41148;45.420;10.952;2022-07-21T09:15:19;100815.69;;;32.77;26.73
23427;BME280;41148;45.420;10.952;2022-07-21T09:18:05;100826.31;;;32.88;26.55
23427;BME280;41148;45.420;10.952;2022-07-21T09:20:37;100825.81;;;33.08;26.85
23427;BME280;41148;45.420;10.952;2022-07-21T09:25:34;100822.78;;;33.40;25.80
23427;BME280;41148;45.420;10.952;2022-07-21T09:33:22;100818.78;;;33.87;25.61
23427;BME280;41148;45.420;10.952;2022-07-21T09:35:53;100812.38;;;33.86;25.48
23427;BME280;41148;45.420;10.952;2022-07-21T09:38:21;100809.38;;;33.96;25.58
23427;BME280;41148;45.420;10.952;2022-07-21T09:40:48;100819.66;;;33.73;25.89
23427;BME280;41148;45.420;10.952;2022-07-21T09:43:29;100822.81;;;33.99;25.71
23427;BME280;41148;45.420;10.952;2022-07-21T09:45:58;100815.34;;;34.14;25.19
23427;BME280;41148;45.420;10.952;2022-07-21T09:48:36;100806.09;;;34.22;25.99
23427;BME280;41148;45.420;10.952;2022-07-21T09:51:18;100813.81;;;34.27;25.17
23427;BME280;41148;45.420;10.952;2022-07-21T09:56:16;100807.53;;;34.18;24.94
23427;BME280;41148;45.420;10.952;2022-07-21T09:58:48;100807.28;;;33.98;25.35
23427;BME280;41148;45.420;10.952;2022-07-21T10:01:16;100805.19;;;33.71;25.72
23427;BME280;41148;45.420;10.952;2022-07-21T10:03:44;100809.09;;;33.91;25.40
23427;BME280;41148;45.420;10.952;2022-07-21T10:06:13;100804.28;;;34.14;25.00
23427;BME280;41148;45.420;10.952;2022-07-21T10:08:42;100807.66;;;33.80;25.52
23427;BME280;41148;45.420;10.952;2022-07-21T10:11:10;100809.09;;;33.91;24.92
23427;BME280;41148;45.420;10.952;2022-07-21T10:13:44;100806.84;;;33.86;24.83
23427;BME280;41148;45.420;10.952;2022-07-21T10:16:11;100812.41;;;33.72;24.81
23427;BME280;41148;45.420;10.952;2022-07-21T10:18:42;100799.25;;;33.74;25.23
23427;BME280;41148;45.420;10.952;2022-07-21T10:23:57;100810.13;;;33.61;25.16
23427;BME280;41148;45.420;10.952;2022-07-21T10:26:25;100807.84;;;33.64;24.99
23427;BME280;41148;45.420;10.952;2022-07-21T10:28:54;100805.44;;;33.76;24.38
23427;BME280;41148;45.420;10.952;2022-07-21T10:31:23;100811.41;;;33.88;24.46
23427;BME280;41148;45.420;10.952;2022-07-21T10:33:51;100812.63;;;34.00;23.63
23427;BME280;41148;45.420;10.952;2022-07-21T10:41:43;100807.00;;;33.93;23.63
23427;BME280;41148;45.420;10.952;2022-07-21T10:47:03;100805.94;;;33.94;23.03
23427;BME280;41148;45.420;10.952;2022-07-21T10:50:14;100802.03;;;34.03;23.91
23427;BME280;41148;45.420;10.952;2022-07-21T10:57:44;100800.41;;;34.09;23.79
23427;BME280;41148;45.420;10.952;2022-07-21T11:02:52;100789.47;;;33.71;22.92
23427;BME280;41148;45.420;10.952;2022-07-21T11:05:20;100788.38;;;33.87;22.92
23427;BME280;41148;45.420;10.952;2022-07-21T11:10:37;100789.81;;;34.12;23.35
23427;BME280;41148;45.420;10.952;2022-07-21T11:13:05;100781.09;;;34.15;21.78
23427;BME280;41148;45.420;10.952;2022-07-21T11:15:48;100777.31;;;34.17;22.34
23427;BME280;41148;45.420;10.952;2022-07-21T11:18:20;100783.72;;;34.17;22.69
23427;BME280;41148;45.420;10.952;2022-07-21T11:23:34;100776.19;;;33.67;22.26
23427;BME280;41148;45.420;10.952;2022-07-21T11:26:06;100773.25;;;33.68;22.76
23427;BME280;41148;45.420;10.952;2022-07-21T11:28:35;100775.53;;;33.79;23.20
23427;BME280;41148;45.420;10.952;2022-07-21T11:31:06;100759.81;;;33.65;23.65
23427;BME280;41148;45.420;10.952;2022-07-21T11:33:37;100768.84;;;34.03;21.22
23427;BME280;41148;45.420;10.952;2022-07-21T11:36:26;100761.06;;;34.07;22.31
23427;BME280;41148;45.420;10.952;2022-07-21T11:39:02;100754.84;;;34.05;22.91
23427;BME280;41148;45.420;10.952;2022-07-21T11:41:30;100765.31;;;34.09;21.92
23427;BME280;41148;45.420;10.952;2022-07-21T11:43:58;100752.78;;;33.92;22.48
23427;BME280;41148;45.420;10.952;2022-07-21T11:46:26;100748.75;;;33.80;23.17
23427;BME280;41148;45.420;10.952;2022-07-21T11:49:05;100751.91;;;33.92;23.26
23427;BME280;41148;45.420;10.952;2022-07-21T11:51:33;100738.94;;;34.07;23.29
23427;BME280;41148;45.420;10.952;2022-07-21T11:54:00;100742.28;;;34.24;23.56
23427;BME280;41148;45.420;10.952;2022-07-21T11:56:27;100734.72;;;34.32;22.63
23427;BME280;41148;45.420;10.952;2022-07-21T11:59:10;100743.75;;;34.56;23.10
23427;BME280;41148;45.420;10.952;2022-07-21T12:01:48;100733.59;;;34.41;23.61
23427;BME280;41148;45.420;10.952;2022-07-21T12:06:55;100738.47;;;34.39;24.01
23427;BME280;41148;45.420;10.952;2022-07-21T12:09:23;100727.66;;;34.44;23.42
23427;BME280;41148;45.420;10.952;2022-07-21T12:11:50;100729.84;;;34.49;23.37
23427;BME280;41148;45.420;10.952;2022-07-21T12:14:18;100723.38;;;34.42;23.33
23427;BME280;41148;45.420;10.952;2022-07-21T12:16:52;100720.41;;;34.43;22.19
23427;BME280;41148;45.420;10.952;2022-07-21T12:19:20;100724.03;;;34.44;22.55
23427;BME280;41148;45.420;10.952;2022-07-21T12:21:49;100719.41;;;34.51;22.64
23427;BME280;41148;45.420;10.952;2022-07-21T12:24:20;100720.06;;;34.53;23.29
23427;BME280;41148;45.420;10.952;2022-07-21T12:26:48;100721.13;;;34.52;22.79
23427;BME280;41148;45.420;10.952;2022-07-21T12:29:25;100719.41;;;34.51;22.59
23427;BME280;41148;45.420;10.952;2022-07-21T12:31:53;100712.81;;;34.31;22.93
23427;BME280;41148;45.420;10.952;2022-07-21T12:34:21;100720.69;;;34.34;22.85
23427;BME280;41148;45.420;10.952;2022-07-21T12:36:54;100714.09;;;34.50;22.99
23427;BME280;41148;45.420;10.952;2022-07-21T12:39:22;100713.44;;;34.48;22.80
23427;BME280;41148;45.420;10.952;2022-07-21T12:42:09;100714.03;;;34.43;23.25
23427;BME280;41148;45.420;10.952;2022-07-21T12:44:37;100714.03;;;34.43;23.08
23427;BME280;41148;45.420;10.952;2022-07-21T12:47:14;100714.28;;;34.48;23.27
23427;BME280;41148;45.420;10.952;2022-07-21T12:50:02;100707.69;;;34.49;23.55
23427;BME280;41148;45.420;10.952;2022-07-21T12:52:48;100701.38;;;34.55;23.63
23427;BME280;41148;45.420;10.952;2022-07-21T12:55:15;100708.28;;;34.66;22.98
23427;BME280;41148;45.420;10.952;2022-07-21T12:57:42;100707.88;;;34.69;22.90
23427;BME280;41148;45.420;10.952;2022-07-21T13:00:10;100706.81;;;34.70;23.02
23427;BME280;41148;45.420;10.952;2022-07-21T13:02:48;100702.06;;;34.64;23.31
23427;BME280;41148;45.420;10.952;2022-07-21T13:05:16;100697.41;;;34.64;23.71
23427;BME280;41148;45.420;10.952;2022-07-21T13:07:43;100704.19;;;34.62;23.46
23427;BME280;41148;45.420;10.952;2022-07-21T13:10:10;100693.75;;;34.57;23.42
23427;BME280;41148;45.420;10.952;2022-07-21T13:12:38;100692.03;;;34.56;23.66
23427;BME280;41148;45.420;10.952;2022-07-21T13:15:05;100690.50;;;34.75;23.27
23427;BME280;41148;45.420;10.952;2022-07-21T13:17:33;100679.59;;;34.73;23.56
23427;BME280;41148;45.420;10.952;2022-07-21T13:20:00;100688.31;;;34.70;23.71
23427;BME280;41148;45.420;10.952;2022-07-21T13:22:33;100677.81;;;34.87;23.37
23427;BME280;41148;45.420;10.952;2022-07-21T13:25:01;100682.09;;;34.90;23.21
23427;BME280;41148;45.420;10.952;2022-07-21T13:27:29;100679.91;;;34.85;23.20